Puerto Rico, Texas
Current Conditions -  °F | °C
As of 3:35 PM on Wednesday 17 Dec 2014 (Local Time) from KEBG Reporting Station
Broken Clouds Broken Clouds  
Wind Chill: 77°   Ceiling: 4100
Heat Index: 79°   Visibility: 10mi
Dew Point: 62°   Wind: 14mph
Humidity: 59%   Direction: 150°SSE
Pressure: 29.98"   Gusts: 20mph
Location:  26.6163°N, 98.1884°W
Report Text: KEBG 172135Z AUTO 15012G17KT 10SM BKN041 25/17 A2998 RMK AO2 T02510167
Loading
Personal Weather Stations






























Interactive Weather Map New forecast layout! Learn more

10-Day Weather Forecast

Advertisements
Track Severe Weather on mobile